Terminal Aerodrome Forecast
Issued by NWS

Home | Current Version | Previous Version | Text Only | Print | Product List | Glossary On
Versions: 1 2 3 4 5 6 7 8 9 10 11 12 13 14 15
132
FTUS43 KAPX 211120
TAFPLN
TAF
KPLN 211120Z 2112/2212 20006KT P6SM BKN200 WS012/23035KT
     FM211500 19008KT P6SM SCT180
     FM212000 18009G19KT P6SM BKN150
     FM220200 18010KT P6SM SCT110 WS020/21040KT
     FM220900 17005KT P6SM SCT060 BKN100 WS020/23040KT=

USA.gov is the U.S. government's official web portal to all federal, state and local government web resources and services.